HZRC53 OERK-OEDF
Flight info
| Callsign | HZRC53 |
|---|---|
| Flight time | 2h 1m |
| Altitude | 5000 |
| Route | VFR |
| Aircraft | EC45/L-SDFGRY/C |
Departure
| Time | 2026-05-07 08:33 |
|---|---|
| Airport | King Khalid International Airport (OERK) |
Arrival
| Time | 2026-05-07 10:34 |
|---|---|
| Airport | King Fahd International Airport (OEDF) |
| Time | Latitude | Longitude | Altitude | Speed | Heading |
|---|---|---|---|---|---|
| 2026-05-07 08:09 | 24.95477 | 46.69435 | 2026 ft | 0 kts | 62° |
| 2026-05-07 08:28 | 24.95501 | 46.69462 | 2031 ft | 8 kts | 95° |
| 2026-05-07 08:28 | 24.95489 | 46.69507 | 2037 ft | 13 kts | 137° |
| 2026-05-07 08:29 | 24.95405 | 46.69563 | 2036 ft | 12 kts | 156° |
| 2026-05-07 08:29 | 24.95323 | 46.69564 | 2041 ft | 17 kts | 198° |
| 2026-05-07 08:29 | 24.95196 | 46.69500 | 2046 ft | 21 kts | 240° |
| 2026-05-07 08:29 | 24.95119 | 46.69360 | 2041 ft | 24 kts | 249° |
| 2026-05-07 08:30 | 24.95043 | 46.69215 | 2041 ft | 19 kts | 251° |
| 2026-05-07 08:30 | 24.94973 | 46.69181 | 2050 ft | 24 kts | 154° |
| 2026-05-07 08:30 | 24.94774 | 46.69294 | 2066 ft | 41 kts | 142° |
| 2026-05-07 08:30 | 24.94537 | 46.69447 | 2037 ft | 37 kts | 141° |
| 2026-05-07 08:31 | 24.94361 | 46.69566 | 2048 ft | 21 kts | 152° |
| 2026-05-07 08:31 | 24.94220 | 46.69652 | 2048 ft | 24 kts | 150° |
| 2026-05-07 08:31 | 24.94064 | 46.69752 | 2057 ft | 27 kts | 153° |
| 2026-05-07 08:31 | 24.93927 | 46.69761 | 2056 ft | 21 kts | 246° |
| 2026-05-07 08:32 | 24.93870 | 46.69619 | 2048 ft | 23 kts | 298° |
| 2026-05-07 08:32 | 24.93997 | 46.69450 | 2073 ft | 50 kts | 340° |
| 2026-05-07 08:32 | 24.94442 | 46.69195 | 2156 ft | 92 kts | 336° |
| 2026-05-07 08:32 | 24.95037 | 46.68802 | 2269 ft | 109 kts | 332° |
| 2026-05-07 08:33 | 24.95703 | 46.68370 | 2497 ft | 112 kts | 332° |
| 2026-05-07 08:33 | 24.96399 | 46.67910 | 2647 ft | 118 kts | 333° |
| 2026-05-07 08:33 | 24.97116 | 46.67477 | 2789 ft | 120 kts | 336° |
| 2026-05-07 08:33 | 24.97879 | 46.67100 | 2900 ft | 121 kts | 340° |
| 2026-05-07 08:34 | 24.98657 | 46.66766 | 3072 ft | 119 kts | 343° |
| 2026-05-07 08:34 | 24.99468 | 46.66609 | 3222 ft | 118 kts | 359° |
| 2026-05-07 08:34 | 25.00275 | 46.66649 | 3465 ft | 108 kts | 13° |
| 2026-05-07 08:34 | 25.00970 | 46.66768 | 3835 ft | 95 kts | 19° |
| 2026-05-07 08:35 | 25.01572 | 46.66982 | 4027 ft | 86 kts | 27° |
| 2026-05-07 08:35 | 25.02015 | 46.67406 | 3960 ft | 85 kts | 59° |
| 2026-05-07 08:35 | 25.02285 | 46.67965 | 3860 ft | 81 kts | 65° |
| 2026-05-07 08:35 | 25.02533 | 46.68508 | 3704 ft | 78 kts | 63° |
| 2026-05-07 08:36 | 25.02779 | 46.69034 | 3527 ft | 77 kts | 64° |
| 2026-05-07 08:36 | 25.03023 | 46.69562 | 3480 ft | 78 kts | 67° |
| 2026-05-07 08:36 | 25.03269 | 46.70101 | 3496 ft | 79 kts | 66° |
| 2026-05-07 08:36 | 25.03528 | 46.70684 | 3493 ft | 92 kts | 67° |
| 2026-05-07 08:37 | 25.03819 | 46.71306 | 3501 ft | 90 kts | 64° |
| 2026-05-07 08:37 | 25.04118 | 46.71918 | 3498 ft | 91 kts | 65° |
| 2026-05-07 08:37 | 25.04414 | 46.72524 | 3509 ft | 90 kts | 63° |
| 2026-05-07 08:37 | 25.04709 | 46.73138 | 3499 ft | 91 kts | 63° |
| 2026-05-07 08:38 | 25.05011 | 46.73765 | 3500 ft | 93 kts | 62° |
| 2026-05-07 08:38 | 25.05312 | 46.74394 | 3489 ft | 93 kts | 66° |
| 2026-05-07 08:38 | 25.05609 | 46.75009 | 3504 ft | 90 kts | 66° |
| 2026-05-07 08:38 | 25.05904 | 46.75625 | 3502 ft | 90 kts | 65° |
| 2026-05-07 08:39 | 25.06201 | 46.76242 | 3491 ft | 93 kts | 64° |
| 2026-05-07 08:39 | 25.06506 | 46.76877 | 3502 ft | 94 kts | 63° |
| 2026-05-07 08:39 | 25.06808 | 46.77507 | 3506 ft | 91 kts | 64° |
| 2026-05-07 08:39 | 25.07099 | 46.78113 | 3492 ft | 89 kts | 64° |
| 2026-05-07 08:40 | 25.07388 | 46.78713 | 3496 ft | 88 kts | 64° |
| 2026-05-07 08:40 | 25.07673 | 46.79311 | 3498 ft | 86 kts | 64° |
| 2026-05-07 08:40 | 25.07951 | 46.79889 | 3500 ft | 88 kts | 64° |
| 2026-05-07 08:40 | 25.08237 | 46.80483 | 3494 ft | 88 kts | 63° |
| 2026-05-07 08:41 | 25.08525 | 46.81083 | 3494 ft | 87 kts | 65° |
| 2026-05-07 08:41 | 25.08800 | 46.81660 | 3494 ft | 84 kts | 65° |
| 2026-05-07 08:41 | 25.09075 | 46.82230 | 3505 ft | 84 kts | 65° |
| 2026-05-07 08:41 | 25.09356 | 46.82821 | 3489 ft | 92 kts | 66° |
| 2026-05-07 08:42 | 25.09657 | 46.83446 | 3498 ft | 92 kts | 65° |
| 2026-05-07 08:42 | 25.09948 | 46.84052 | 3489 ft | 87 kts | 65° |
| 2026-05-07 08:42 | 25.10224 | 46.84629 | 3493 ft | 85 kts | 65° |
| 2026-05-07 08:42 | 25.10501 | 46.85210 | 3489 ft | 87 kts | 68° |
| 2026-05-07 08:43 | 25.10783 | 46.85798 | 3494 ft | 88 kts | 64° |
| 2026-05-07 08:43 | 25.11062 | 46.86380 | 3481 ft | 86 kts | 66° |
| 2026-05-07 08:43 | 25.11343 | 46.86972 | 3495 ft | 88 kts | 64° |
| 2026-05-07 08:43 | 25.11631 | 46.87563 | 3497 ft | 87 kts | 63° |
| 2026-05-07 08:44 | 25.11912 | 46.88152 | 3477 ft | 88 kts | 65° |
| 2026-05-07 08:44 | 25.12198 | 46.88755 | 3485 ft | 89 kts | 64° |
| 2026-05-07 08:44 | 25.12486 | 46.89358 | 3495 ft | 88 kts | 64° |
| 2026-05-07 08:44 | 25.12769 | 46.89939 | 3488 ft | 85 kts | 64° |
| 2026-05-07 08:45 | 25.13045 | 46.90521 | 3490 ft | 88 kts | 65° |
| 2026-05-07 08:45 | 25.13338 | 46.91134 | 3492 ft | 91 kts | 65° |
| 2026-05-07 08:45 | 25.13629 | 46.91740 | 3490 ft | 88 kts | 64° |
| 2026-05-07 08:45 | 25.13915 | 46.92340 | 3479 ft | 90 kts | 66° |
| 2026-05-07 08:46 | 25.14212 | 46.92955 | 3485 ft | 91 kts | 65° |
| 2026-05-07 08:46 | 25.14503 | 46.93557 | 3475 ft | 89 kts | 63° |
| 2026-05-07 08:46 | 25.14794 | 46.94181 | 3485 ft | 92 kts | 66° |
| 2026-05-07 08:46 | 25.15100 | 46.94819 | 3486 ft | 94 kts | 66° |
| 2026-05-07 08:47 | 25.15397 | 46.95436 | 3483 ft | 91 kts | 65° |
| 2026-05-07 08:47 | 25.15688 | 46.96047 | 3479 ft | 90 kts | 63° |
| 2026-05-07 08:47 | 25.15985 | 46.96668 | 3480 ft | 94 kts | 63° |
| 2026-05-07 08:47 | 25.16289 | 46.97302 | 3481 ft | 93 kts | 62° |
| 2026-05-07 08:48 | 25.16579 | 46.97909 | 3472 ft | 87 kts | 63° |
| 2026-05-07 08:48 | 25.16859 | 46.98496 | 3472 ft | 87 kts | 65° |
| 2026-05-07 08:48 | 25.17154 | 46.99114 | 3482 ft | 94 kts | 63° |
| 2026-05-07 08:48 | 25.17455 | 46.99743 | 3478 ft | 91 kts | 59° |
| 2026-05-07 08:49 | 25.17745 | 47.00351 | 3476 ft | 88 kts | 64° |
| 2026-05-07 08:49 | 25.18034 | 47.00957 | 3479 ft | 91 kts | 64° |
| 2026-05-07 08:49 | 25.18326 | 47.01568 | 3476 ft | 90 kts | 60° |
| 2026-05-07 08:49 | 25.18614 | 47.02169 | 3479 ft | 86 kts | 60° |
| 2026-05-07 08:50 | 25.18892 | 47.02755 | 3497 ft | 87 kts | 65° |
| 2026-05-07 08:50 | 25.19179 | 47.03355 | 3494 ft | 91 kts | 65° |
| 2026-05-07 08:50 | 25.19504 | 47.04065 | 3488 ft | 117 kts | 62° |
| 2026-05-07 08:50 | 25.19885 | 47.04883 | 3510 ft | 119 kts | 62° |
| 2026-05-07 08:51 | 25.20265 | 47.05674 | 3495 ft | 117 kts | 65° |
| 2026-05-07 08:51 | 25.20641 | 47.06469 | 3499 ft | 116 kts | 61° |
| 2026-05-07 08:51 | 25.21025 | 47.07280 | 3492 ft | 119 kts | 62° |
| 2026-05-07 08:51 | 25.21411 | 47.08092 | 3503 ft | 120 kts | 62° |
| 2026-05-07 08:52 | 25.21799 | 47.08885 | 3496 ft | 117 kts | 63° |
| 2026-05-07 08:52 | 25.22176 | 47.09663 | 3496 ft | 113 kts | 61° |
| 2026-05-07 08:52 | 25.22549 | 47.10446 | 3480 ft | 119 kts | 64° |
| 2026-05-07 08:52 | 25.22914 | 47.11213 | 3492 ft | 107 kts | 63° |
| 2026-05-07 08:53 | 25.23267 | 47.11955 | 3493 ft | 111 kts | 66° |
| 2026-05-07 08:53 | 25.23622 | 47.12699 | 3498 ft | 109 kts | 63° |
| 2026-05-07 08:53 | 25.23981 | 47.13440 | 3492 ft | 110 kts | 63° |
| 2026-05-07 08:53 | 25.24333 | 47.14174 | 3495 ft | 110 kts | 64° |
| 2026-05-07 08:54 | 25.24691 | 47.14920 | 3509 ft | 108 kts | 61° |
| 2026-05-07 08:54 | 25.25040 | 47.15652 | 3488 ft | 110 kts | 64° |
| 2026-05-07 08:54 | 25.25400 | 47.16411 | 3498 ft | 110 kts | 63° |
| 2026-05-07 08:54 | 25.25757 | 47.17159 | 3490 ft | 111 kts | 62° |
| 2026-05-07 08:55 | 25.26106 | 47.17888 | 3486 ft | 106 kts | 62° |
| 2026-05-07 08:55 | 25.26452 | 47.18625 | 3492 ft | 108 kts | 63° |
| 2026-05-07 08:55 | 25.26805 | 47.19363 | 3489 ft | 111 kts | 64° |
| 2026-05-07 08:55 | 25.27170 | 47.20133 | 3491 ft | 113 kts | 62° |
| 2026-05-07 08:56 | 25.27532 | 47.20893 | 3486 ft | 111 kts | 62° |
| 2026-05-07 08:56 | 25.27888 | 47.21640 | 3486 ft | 109 kts | 65° |
| 2026-05-07 08:56 | 25.28240 | 47.22377 | 3492 ft | 108 kts | 63° |
| 2026-05-07 08:56 | 25.28590 | 47.23119 | 3483 ft | 111 kts | 62° |
| 2026-05-07 08:57 | 25.28940 | 47.23854 | 3491 ft | 108 kts | 62° |
| 2026-05-07 08:57 | 25.29292 | 47.24596 | 3487 ft | 109 kts | 62° |
| 2026-05-07 08:57 | 25.29642 | 47.25332 | 3483 ft | 109 kts | 64° |
| 2026-05-07 08:57 | 25.29996 | 47.26084 | 3491 ft | 110 kts | 63° |
| 2026-05-07 08:58 | 25.30354 | 47.26828 | 3491 ft | 109 kts | 62° |
| 2026-05-07 08:58 | 25.30706 | 47.27571 | 3487 ft | 108 kts | 62° |
| 2026-05-07 08:58 | 25.31054 | 47.28304 | 3484 ft | 108 kts | 63° |
| 2026-05-07 08:58 | 25.31401 | 47.29036 | 3486 ft | 106 kts | 60° |
| 2026-05-07 08:59 | 25.31745 | 47.29760 | 3487 ft | 107 kts | 61° |
| 2026-05-07 08:59 | 25.32089 | 47.30486 | 3484 ft | 106 kts | 62° |
| 2026-05-07 08:59 | 25.32435 | 47.31216 | 3485 ft | 108 kts | 62° |
| 2026-05-07 08:59 | 25.32780 | 47.31944 | 3485 ft | 106 kts | 60° |
| 2026-05-07 09:00 | 25.33124 | 47.32667 | 3474 ft | 107 kts | 62° |
| 2026-05-07 09:00 | 25.33458 | 47.33377 | 3490 ft | 99 kts | 62° |
| 2026-05-07 09:00 | 25.33775 | 47.34035 | 3473 ft | 97 kts | 63° |
| 2026-05-07 09:00 | 25.34083 | 47.34696 | 3478 ft | 96 kts | 64° |
| 2026-05-07 09:01 | 25.34376 | 47.35307 | 3481 ft | 86 kts | 60° |
| 2026-05-07 09:01 | 25.34669 | 47.35940 | 3468 ft | 105 kts | 63° |
| 2026-05-07 09:01 | 25.35009 | 47.36656 | 3475 ft | 102 kts | 60° |
| 2026-05-07 09:01 | 25.35348 | 47.37361 | 3478 ft | 104 kts | 62° |
| 2026-05-07 09:02 | 25.35689 | 47.38088 | 3477 ft | 111 kts | 63° |
| 2026-05-07 09:02 | 25.36044 | 47.38832 | 3481 ft | 107 kts | 60° |
| 2026-05-07 09:02 | 25.36388 | 47.39559 | 3480 ft | 105 kts | 61° |
| 2026-05-07 09:02 | 25.36728 | 47.40276 | 3475 ft | 107 kts | 63° |
| 2026-05-07 09:03 | 25.37078 | 47.41014 | 3476 ft | 109 kts | 61° |
| 2026-05-07 09:03 | 25.37424 | 47.41746 | 3474 ft | 107 kts | 61° |
| 2026-05-07 09:03 | 25.37771 | 47.42479 | 3476 ft | 108 kts | 62° |
| 2026-05-07 09:03 | 25.38120 | 47.43214 | 3462 ft | 110 kts | 63° |
| 2026-05-07 09:04 | 25.38472 | 47.43959 | 3479 ft | 107 kts | 60° |
| 2026-05-07 09:04 | 25.38819 | 47.44694 | 3472 ft | 112 kts | 63° |
| 2026-05-07 09:04 | 25.39173 | 47.45436 | 3475 ft | 108 kts | 62° |
| 2026-05-07 09:04 | 25.39525 | 47.46187 | 3470 ft | 110 kts | 63° |
| 2026-05-07 09:05 | 25.39878 | 47.46935 | 3468 ft | 112 kts | 63° |
| 2026-05-07 09:05 | 25.40237 | 47.47691 | 3477 ft | 107 kts | 62° |
| 2026-05-07 09:05 | 25.40583 | 47.48428 | 3470 ft | 109 kts | 64° |
| 2026-05-07 09:05 | 25.40933 | 47.49165 | 3467 ft | 107 kts | 63° |
| 2026-05-07 09:06 | 25.41289 | 47.49921 | 3473 ft | 113 kts | 62° |
| 2026-05-07 09:06 | 25.41651 | 47.50677 | 3465 ft | 110 kts | 62° |
| 2026-05-07 09:06 | 25.42006 | 47.51438 | 3469 ft | 111 kts | 62° |
| 2026-05-07 09:06 | 25.42358 | 47.52183 | 3468 ft | 109 kts | 63° |
| 2026-05-07 09:07 | 25.42714 | 47.52938 | 3472 ft | 110 kts | 62° |
| 2026-05-07 09:07 | 25.43061 | 47.53674 | 3465 ft | 108 kts | 62° |
| 2026-05-07 09:07 | 25.43405 | 47.54401 | 3463 ft | 109 kts | 62° |
| 2026-05-07 09:07 | 25.43761 | 47.55156 | 3467 ft | 111 kts | 60° |
| 2026-05-07 09:08 | 25.44118 | 47.55914 | 3472 ft | 111 kts | 61° |
| 2026-05-07 09:08 | 25.44467 | 47.56645 | 3464 ft | 107 kts | 62° |
| 2026-05-07 09:08 | 25.44812 | 47.57378 | 3465 ft | 107 kts | 62° |
| 2026-05-07 09:08 | 25.45154 | 47.58111 | 3464 ft | 108 kts | 63° |
| 2026-05-07 09:09 | 25.45499 | 47.58840 | 3467 ft | 106 kts | 63° |
| 2026-05-07 09:09 | 25.45849 | 47.59587 | 3469 ft | 110 kts | 63° |
| 2026-05-07 09:09 | 25.46199 | 47.60324 | 3470 ft | 106 kts | 62° |
| 2026-05-07 09:09 | 25.46531 | 47.61030 | 3462 ft | 107 kts | 62° |
| 2026-05-07 09:10 | 25.46883 | 47.61777 | 3464 ft | 111 kts | 63° |
| 2026-05-07 09:10 | 25.47235 | 47.62519 | 3467 ft | 105 kts | 63° |
| 2026-05-07 09:10 | 25.47569 | 47.63233 | 3462 ft | 105 kts | 64° |
| 2026-05-07 09:10 | 25.47914 | 47.63976 | 3465 ft | 110 kts | 63° |
| 2026-05-07 09:11 | 25.48265 | 47.64709 | 3463 ft | 107 kts | 62° |
| 2026-05-07 09:11 | 25.48605 | 47.65437 | 3458 ft | 108 kts | 63° |
| 2026-05-07 09:11 | 25.48951 | 47.66168 | 3464 ft | 107 kts | 64° |
| 2026-05-07 09:11 | 25.49299 | 47.66905 | 3468 ft | 107 kts | 63° |
| 2026-05-07 09:12 | 25.49638 | 47.67629 | 3463 ft | 104 kts | 63° |
| 2026-05-07 09:12 | 25.49977 | 47.68352 | 3456 ft | 109 kts | 64° |
| 2026-05-07 09:12 | 25.50334 | 47.69108 | 3460 ft | 110 kts | 63° |
| 2026-05-07 09:12 | 25.50682 | 47.69844 | 3462 ft | 105 kts | 62° |
| 2026-05-07 09:13 | 25.51013 | 47.70555 | 3457 ft | 108 kts | 63° |
| 2026-05-07 09:13 | 25.51377 | 47.71284 | 3458 ft | 108 kts | 56° |
| 2026-05-07 09:13 | 25.51912 | 47.71883 | 3460 ft | 111 kts | 43° |
| 2026-05-07 09:13 | 25.52492 | 47.72458 | 3467 ft | 110 kts | 42° |
| 2026-05-07 09:14 | 25.53048 | 47.73015 | 3454 ft | 108 kts | 43° |
| 2026-05-07 09:14 | 25.53595 | 47.73591 | 3453 ft | 110 kts | 45° |
| 2026-05-07 09:14 | 25.54157 | 47.74192 | 3469 ft | 111 kts | 43° |
| 2026-05-07 09:14 | 25.54717 | 47.74781 | 3461 ft | 110 kts | 44° |
| 2026-05-07 09:15 | 25.55379 | 47.75185 | 3450 ft | 115 kts | 18° |
| 2026-05-07 09:15 | 25.56187 | 47.75134 | 3462 ft | 117 kts | 355° |
| 2026-05-07 09:15 | 25.56987 | 47.74943 | 3458 ft | 119 kts | 351° |
| 2026-05-07 09:15 | 25.57796 | 47.74739 | 3462 ft | 119 kts | 349° |
| 2026-05-07 09:16 | 25.58606 | 47.74531 | 3464 ft | 120 kts | 348° |
| 2026-05-07 09:16 | 25.59411 | 47.74319 | 3460 ft | 118 kts | 348° |
| 2026-05-07 09:16 | 25.60203 | 47.74108 | 3459 ft | 117 kts | 348° |
| 2026-05-07 09:16 | 25.60996 | 47.73900 | 3458 ft | 117 kts | 349° |
| 2026-05-07 09:17 | 25.61789 | 47.73695 | 3461 ft | 116 kts | 349° |
| 2026-05-07 09:17 | 25.62567 | 47.73491 | 3459 ft | 116 kts | 350° |
| 2026-05-07 09:17 | 25.63358 | 47.73281 | 3462 ft | 117 kts | 351° |
| 2026-05-07 09:17 | 25.64144 | 47.73072 | 3456 ft | 117 kts | 351° |
| 2026-05-07 09:18 | 25.64951 | 47.72943 | 3454 ft | 118 kts | 5° |
| 2026-05-07 09:18 | 25.65730 | 47.73159 | 3458 ft | 114 kts | 27° |
| 2026-05-07 09:18 | 25.66377 | 47.73659 | 3468 ft | 111 kts | 41° |
| 2026-05-07 09:18 | 25.66895 | 47.74259 | 3457 ft | 107 kts | 50° |
| 2026-05-07 09:19 | 25.67355 | 47.74914 | 3451 ft | 112 kts | 54° |
| 2026-05-07 09:19 | 25.67808 | 47.75625 | 3459 ft | 112 kts | 54° |
| 2026-05-07 09:19 | 25.68100 | 47.76094 | 3462 ft | 110 kts | 55° |
| 2026-05-07 09:19 | 25.68524 | 47.76779 | 3452 ft | 108 kts | 56° |
| 2026-05-07 09:20 | 25.68948 | 47.77477 | 3457 ft | 110 kts | 57° |
| 2026-05-07 09:20 | 25.69369 | 47.78169 | 3451 ft | 106 kts | 57° |
| 2026-05-07 09:20 | 25.69781 | 47.78852 | 3454 ft | 107 kts | 58° |
| 2026-05-07 09:20 | 25.70193 | 47.79538 | 3451 ft | 108 kts | 58° |
| 2026-05-07 09:21 | 25.70617 | 47.80251 | 3457 ft | 111 kts | 56° |
| 2026-05-07 09:21 | 25.71046 | 47.80954 | 3456 ft | 108 kts | 54° |
| 2026-05-07 09:21 | 25.71451 | 47.81630 | 3445 ft | 106 kts | 58° |
| 2026-05-07 09:21 | 25.71868 | 47.82325 | 3455 ft | 110 kts | 54° |
| 2026-05-07 09:22 | 25.72290 | 47.83023 | 3449 ft | 107 kts | 57° |
| 2026-05-07 09:22 | 25.72699 | 47.83710 | 3457 ft | 106 kts | 56° |
| 2026-05-07 09:22 | 25.73113 | 47.84395 | 3448 ft | 107 kts | 56° |
| 2026-05-07 09:22 | 25.73520 | 47.85076 | 3449 ft | 106 kts | 58° |
| 2026-05-07 09:23 | 25.73927 | 47.85755 | 3448 ft | 107 kts | 54° |
| 2026-05-07 09:23 | 25.74343 | 47.86449 | 3452 ft | 109 kts | 54° |
| 2026-05-07 09:23 | 25.74760 | 47.87145 | 3446 ft | 109 kts | 57° |
| 2026-05-07 09:23 | 25.75177 | 47.87843 | 3458 ft | 106 kts | 54° |
| 2026-05-07 09:24 | 25.75594 | 47.88535 | 3451 ft | 110 kts | 57° |
| 2026-05-07 09:24 | 25.76012 | 47.89230 | 3448 ft | 108 kts | 58° |
| 2026-05-07 09:24 | 25.76435 | 47.89935 | 3454 ft | 110 kts | 56° |
| 2026-05-07 09:24 | 25.76846 | 47.90620 | 3448 ft | 106 kts | 58° |
| 2026-05-07 09:25 | 25.77264 | 47.91321 | 3449 ft | 111 kts | 57° |
| 2026-05-07 09:25 | 25.77693 | 47.92035 | 3448 ft | 109 kts | 58° |
| 2026-05-07 09:25 | 25.78113 | 47.92736 | 3454 ft | 111 kts | 57° |
| 2026-05-07 09:25 | 25.78538 | 47.93444 | 3445 ft | 110 kts | 57° |
| 2026-05-07 09:26 | 25.78962 | 47.94152 | 3449 ft | 111 kts | 56° |
| 2026-05-07 09:26 | 25.79383 | 47.94856 | 3436 ft | 109 kts | 57° |
| 2026-05-07 09:26 | 25.79814 | 47.95583 | 3450 ft | 113 kts | 55° |
| 2026-05-07 09:26 | 25.80244 | 47.96292 | 3445 ft | 110 kts | 55° |
| 2026-05-07 09:27 | 25.80665 | 47.96986 | 3448 ft | 106 kts | 55° |
| 2026-05-07 09:27 | 25.81077 | 47.97679 | 3442 ft | 110 kts | 57° |
| 2026-05-07 09:27 | 25.81899 | 47.99060 | 3442 ft | 108 kts | 55° |
| 2026-05-07 09:28 | 25.82321 | 47.99767 | 3447 ft | 109 kts | 56° |
| 2026-05-07 09:28 | 25.82732 | 48.00443 | 3436 ft | 107 kts | 56° |
| 2026-05-07 09:28 | 25.83149 | 48.01157 | 3447 ft | 112 kts | 56° |
| 2026-05-07 09:28 | 25.83570 | 48.01850 | 3435 ft | 108 kts | 56° |
| 2026-05-07 09:29 | 25.83992 | 48.02559 | 3450 ft | 110 kts | 56° |
| 2026-05-07 09:29 | 25.84412 | 48.03257 | 3444 ft | 109 kts | 56° |
| 2026-05-07 09:29 | 25.84838 | 48.03972 | 3442 ft | 111 kts | 56° |
| 2026-05-07 09:29 | 25.85255 | 48.04670 | 3441 ft | 109 kts | 57° |
| 2026-05-07 09:30 | 25.85682 | 48.05383 | 3443 ft | 111 kts | 56° |
| 2026-05-07 09:30 | 25.86103 | 48.06087 | 3441 ft | 109 kts | 55° |
| 2026-05-07 09:30 | 25.86525 | 48.06794 | 3440 ft | 111 kts | 56° |
| 2026-05-07 09:30 | 25.86948 | 48.07504 | 3437 ft | 111 kts | 56° |
| 2026-05-07 09:31 | 25.87381 | 48.08225 | 3453 ft | 110 kts | 54° |
| 2026-05-07 09:31 | 25.87798 | 48.08917 | 3435 ft | 108 kts | 54° |
| 2026-05-07 09:31 | 25.88215 | 48.09631 | 3441 ft | 113 kts | 56° |
| 2026-05-07 09:31 | 25.88641 | 48.10338 | 3445 ft | 109 kts | 53° |
| 2026-05-07 09:32 | 25.89061 | 48.11031 | 3433 ft | 109 kts | 54° |
| 2026-05-07 09:32 | 25.89477 | 48.11731 | 3432 ft | 110 kts | 55° |
| 2026-05-07 09:32 | 25.89899 | 48.12446 | 3438 ft | 110 kts | 53° |
| 2026-05-07 09:32 | 25.90321 | 48.13144 | 3441 ft | 108 kts | 53° |
| 2026-05-07 09:33 | 25.90740 | 48.13838 | 3436 ft | 108 kts | 54° |
| 2026-05-07 09:33 | 25.91151 | 48.14537 | 3435 ft | 108 kts | 57° |
| 2026-05-07 09:33 | 25.91566 | 48.15243 | 3438 ft | 110 kts | 55° |
| 2026-05-07 09:33 | 25.91989 | 48.15949 | 3437 ft | 109 kts | 56° |
| 2026-05-07 09:34 | 25.92402 | 48.16641 | 3427 ft | 111 kts | 56° |
| 2026-05-07 09:34 | 25.92827 | 48.17353 | 3441 ft | 108 kts | 53° |
| 2026-05-07 09:34 | 25.93237 | 48.18044 | 3430 ft | 108 kts | 56° |
| 2026-05-07 09:34 | 25.93659 | 48.18762 | 3450 ft | 111 kts | 53° |
| 2026-05-07 09:35 | 25.94083 | 48.19459 | 3432 ft | 108 kts | 56° |
| 2026-05-07 09:35 | 25.94500 | 48.20164 | 3433 ft | 111 kts | 55° |
| 2026-05-07 09:35 | 25.94927 | 48.20878 | 3433 ft | 111 kts | 56° |
| 2026-05-07 09:35 | 25.95348 | 48.21588 | 3430 ft | 112 kts | 56° |
| 2026-05-07 09:36 | 25.95777 | 48.22301 | 3438 ft | 108 kts | 54° |
| 2026-05-07 09:36 | 25.96191 | 48.23003 | 3430 ft | 111 kts | 56° |
| 2026-05-07 09:36 | 25.96619 | 48.23725 | 3438 ft | 112 kts | 55° |
| 2026-05-07 09:36 | 25.97050 | 48.24444 | 3433 ft | 112 kts | 54° |
| 2026-05-07 09:37 | 25.97476 | 48.25161 | 3429 ft | 114 kts | 56° |
| 2026-05-07 09:37 | 25.97913 | 48.25891 | 3429 ft | 112 kts | 53° |
| 2026-05-07 09:37 | 25.98339 | 48.26612 | 3419 ft | 112 kts | 56° |
| 2026-05-07 09:37 | 25.98769 | 48.27334 | 3442 ft | 111 kts | 53° |
| 2026-05-07 09:38 | 25.99196 | 48.28045 | 3429 ft | 111 kts | 54° |
| 2026-05-07 09:38 | 25.99624 | 48.28773 | 3417 ft | 113 kts | 55° |
| 2026-05-07 09:38 | 26.00054 | 48.29495 | 3429 ft | 110 kts | 53° |
| 2026-05-07 09:38 | 26.00478 | 48.30208 | 3431 ft | 111 kts | 54° |
| 2026-05-07 09:39 | 26.00907 | 48.30930 | 3430 ft | 111 kts | 54° |
| 2026-05-07 09:39 | 26.01330 | 48.31641 | 3431 ft | 110 kts | 52° |
| 2026-05-07 09:39 | 26.01754 | 48.32356 | 3421 ft | 114 kts | 53° |
| 2026-05-07 09:39 | 26.02178 | 48.33067 | 3432 ft | 108 kts | 53° |
| 2026-05-07 09:40 | 26.02598 | 48.33779 | 3427 ft | 112 kts | 55° |
| 2026-05-07 09:40 | 26.03022 | 48.34487 | 3429 ft | 109 kts | 54° |
| 2026-05-07 09:40 | 26.03436 | 48.35188 | 3408 ft | 109 kts | 54° |
| 2026-05-07 09:40 | 26.03860 | 48.35901 | 3436 ft | 110 kts | 53° |
| 2026-05-07 09:41 | 26.04280 | 48.36609 | 3427 ft | 110 kts | 54° |
| 2026-05-07 09:41 | 26.04706 | 48.37326 | 3429 ft | 111 kts | 53° |
| 2026-05-07 09:41 | 26.05129 | 48.38040 | 3406 ft | 112 kts | 54° |
| 2026-05-07 09:41 | 26.05554 | 48.38754 | 3436 ft | 109 kts | 54° |
| 2026-05-07 09:42 | 26.05977 | 48.39472 | 3433 ft | 113 kts | 54° |
| 2026-05-07 09:42 | 26.06400 | 48.40180 | 3410 ft | 110 kts | 56° |
| 2026-05-07 09:42 | 26.06824 | 48.40899 | 3430 ft | 112 kts | 54° |
| 2026-05-07 09:42 | 26.07253 | 48.41615 | 3422 ft | 110 kts | 53° |
| 2026-05-07 09:43 | 26.07679 | 48.42339 | 3432 ft | 111 kts | 53° |
| 2026-05-07 09:43 | 26.08106 | 48.43060 | 3421 ft | 112 kts | 54° |
| 2026-05-07 09:43 | 26.08535 | 48.43783 | 3430 ft | 112 kts | 53° |
| 2026-05-07 09:43 | 26.08966 | 48.44507 | 3428 ft | 112 kts | 52° |
| 2026-05-07 09:44 | 26.09394 | 48.45233 | 3397 ft | 113 kts | 54° |
| 2026-05-07 09:44 | 26.09826 | 48.45961 | 3393 ft | 112 kts | 53° |
| 2026-05-07 09:44 | 26.10253 | 48.46683 | 3429 ft | 111 kts | 52° |
| 2026-05-07 09:44 | 26.10676 | 48.47400 | 3424 ft | 110 kts | 52° |
| 2026-05-07 09:45 | 26.11093 | 48.48103 | 3406 ft | 111 kts | 53° |
| 2026-05-07 09:45 | 26.11517 | 48.48820 | 3423 ft | 110 kts | 52° |
| 2026-05-07 09:45 | 26.11940 | 48.49533 | 3428 ft | 110 kts | 53° |
| 2026-05-07 09:45 | 26.12362 | 48.50245 | 3418 ft | 112 kts | 55° |
| 2026-05-07 09:46 | 26.12790 | 48.50969 | 3429 ft | 111 kts | 53° |
| 2026-05-07 09:46 | 26.13214 | 48.51683 | 3408 ft | 111 kts | 56° |
| 2026-05-07 09:46 | 26.13644 | 48.52412 | 3398 ft | 113 kts | 53° |
| 2026-05-07 09:46 | 26.14069 | 48.53130 | 3422 ft | 109 kts | 54° |
| 2026-05-07 09:47 | 26.14492 | 48.53845 | 3334 ft | 113 kts | 54° |
| 2026-05-07 09:47 | 26.14918 | 48.54566 | 3413 ft | 109 kts | 54° |
| 2026-05-07 09:47 | 26.15339 | 48.55277 | 3421 ft | 111 kts | 53° |
| 2026-05-07 09:47 | 26.15726 | 48.55924 | 3429 ft | 90 kts | 49° |
| 2026-05-07 09:48 | 26.16079 | 48.56515 | 3417 ft | 94 kts | 53° |
| 2026-05-07 09:48 | 26.16439 | 48.57125 | 3430 ft | 92 kts | 51° |
| 2026-05-07 09:48 | 26.16786 | 48.57704 | 3415 ft | 89 kts | 52° |
| 2026-05-07 09:48 | 26.17136 | 48.58298 | 3428 ft | 94 kts | 52° |
| 2026-05-07 09:49 | 26.17485 | 48.58878 | 3418 ft | 88 kts | 50° |
| 2026-05-07 09:49 | 26.17730 | 48.59522 | 3413 ft | 95 kts | 65° |
| 2026-05-07 09:49 | 26.17921 | 48.60223 | 3425 ft | 93 kts | 65° |
| 2026-05-07 09:49 | 26.18099 | 48.60895 | 3416 ft | 90 kts | 66° |
| 2026-05-07 09:50 | 26.18271 | 48.61583 | 3416 ft | 94 kts | 66° |
| 2026-05-07 09:50 | 26.18445 | 48.62278 | 3416 ft | 92 kts | 64° |
| 2026-05-07 09:50 | 26.18619 | 48.62967 | 3408 ft | 94 kts | 68° |
| 2026-05-07 09:50 | 26.18792 | 48.63672 | 3415 ft | 93 kts | 66° |
| 2026-05-07 09:51 | 26.18966 | 48.64362 | 3417 ft | 92 kts | 68° |
| 2026-05-07 09:51 | 26.19140 | 48.65052 | 3410 ft | 93 kts | 67° |
| 2026-05-07 09:51 | 26.19310 | 48.65737 | 3408 ft | 91 kts | 67° |
| 2026-05-07 09:51 | 26.19477 | 48.66426 | 3415 ft | 94 kts | 70° |
| 2026-05-07 09:52 | 26.19648 | 48.67125 | 3417 ft | 92 kts | 67° |
| 2026-05-07 09:52 | 26.19811 | 48.67792 | 3406 ft | 91 kts | 68° |
| 2026-05-07 09:52 | 26.19978 | 48.68476 | 3416 ft | 93 kts | 68° |
| 2026-05-07 09:52 | 26.20148 | 48.69151 | 3409 ft | 90 kts | 69° |
| 2026-05-07 09:53 | 26.20315 | 48.69838 | 3416 ft | 94 kts | 69° |
| 2026-05-07 09:53 | 26.20489 | 48.70530 | 3411 ft | 91 kts | 69° |
| 2026-05-07 09:53 | 26.20657 | 48.71209 | 3411 ft | 90 kts | 69° |
| 2026-05-07 09:53 | 26.20825 | 48.71886 | 3406 ft | 92 kts | 68° |
| 2026-05-07 09:54 | 26.20997 | 48.72580 | 3403 ft | 93 kts | 70° |
| 2026-05-07 09:54 | 26.21166 | 48.73264 | 3409 ft | 91 kts | 69° |
| 2026-05-07 09:54 | 26.21337 | 48.73950 | 3415 ft | 92 kts | 66° |
| 2026-05-07 09:54 | 26.21507 | 48.74629 | 3409 ft | 91 kts | 67° |
| 2026-05-07 09:55 | 26.21677 | 48.75319 | 3406 ft | 93 kts | 68° |
| 2026-05-07 09:55 | 26.21848 | 48.76013 | 3407 ft | 94 kts | 69° |
| 2026-05-07 09:55 | 26.22023 | 48.76714 | 3409 ft | 94 kts | 68° |
| 2026-05-07 09:55 | 26.22196 | 48.77413 | 3405 ft | 92 kts | 66° |
| 2026-05-07 09:56 | 26.22368 | 48.78100 | 3411 ft | 93 kts | 67° |
| 2026-05-07 09:56 | 26.22545 | 48.78801 | 3404 ft | 94 kts | 67° |
| 2026-05-07 09:56 | 26.22719 | 48.79499 | 3397 ft | 93 kts | 68° |
| 2026-05-07 09:56 | 26.22889 | 48.80191 | 3406 ft | 92 kts | 66° |
| 2026-05-07 09:57 | 26.23060 | 48.80876 | 3405 ft | 92 kts | 67° |
| 2026-05-07 09:57 | 26.23232 | 48.81567 | 3404 ft | 93 kts | 66° |
| 2026-05-07 09:57 | 26.23400 | 48.82242 | 3403 ft | 91 kts | 65° |
| 2026-05-07 09:57 | 26.23568 | 48.82916 | 3403 ft | 91 kts | 68° |
| 2026-05-07 09:58 | 26.23739 | 48.83606 | 3404 ft | 93 kts | 67° |
| 2026-05-07 09:58 | 26.23910 | 48.84295 | 3396 ft | 92 kts | 67° |
| 2026-05-07 09:58 | 26.24080 | 48.84987 | 3401 ft | 93 kts | 67° |
| 2026-05-07 09:58 | 26.24250 | 48.85679 | 3399 ft | 93 kts | 67° |
| 2026-05-07 09:59 | 26.24420 | 48.86371 | 3395 ft | 93 kts | 67° |
| 2026-05-07 09:59 | 26.24590 | 48.87065 | 3403 ft | 93 kts | 66° |
| 2026-05-07 09:59 | 26.24760 | 48.87753 | 3396 ft | 92 kts | 65° |
| 2026-05-07 09:59 | 26.24928 | 48.88441 | 3395 ft | 93 kts | 69° |
| 2026-05-07 10:00 | 26.25096 | 48.89131 | 3399 ft | 93 kts | 68° |
| 2026-05-07 10:00 | 26.25265 | 48.89825 | 3399 ft | 92 kts | 66° |
| 2026-05-07 10:00 | 26.25433 | 48.90510 | 3400 ft | 91 kts | 67° |
| 2026-05-07 10:00 | 26.25604 | 48.91203 | 3403 ft | 93 kts | 66° |
| 2026-05-07 10:01 | 26.25777 | 48.91899 | 3400 ft | 92 kts | 66° |
| 2026-05-07 10:01 | 26.25950 | 48.92588 | 3397 ft | 92 kts | 66° |
| 2026-05-07 10:01 | 26.26124 | 48.93281 | 3397 ft | 92 kts | 66° |
| 2026-05-07 10:01 | 26.26299 | 48.93976 | 3395 ft | 93 kts | 66° |
| 2026-05-07 10:02 | 26.26472 | 48.94673 | 3395 ft | 93 kts | 66° |
| 2026-05-07 10:02 | 26.26642 | 48.95359 | 3395 ft | 92 kts | 66° |
| 2026-05-07 10:02 | 26.26813 | 48.96055 | 3395 ft | 93 kts | 68° |
| 2026-05-07 10:02 | 26.26985 | 48.96754 | 3400 ft | 93 kts | 66° |
| 2026-05-07 10:03 | 26.27160 | 48.97444 | 3395 ft | 92 kts | 66° |
| 2026-05-07 10:03 | 26.27328 | 48.98136 | 3385 ft | 93 kts | 68° |
| 2026-05-07 10:03 | 26.27497 | 48.98843 | 3402 ft | 95 kts | 68° |
| 2026-05-07 10:03 | 26.27670 | 48.99552 | 3398 ft | 94 kts | 66° |
| 2026-05-07 10:04 | 26.27843 | 49.00241 | 3385 ft | 93 kts | 66° |
| 2026-05-07 10:04 | 26.28018 | 49.00946 | 3393 ft | 95 kts | 67° |
| 2026-05-07 10:04 | 26.28194 | 49.01658 | 3394 ft | 95 kts | 66° |
| 2026-05-07 10:04 | 26.28370 | 49.02366 | 3385 ft | 95 kts | 66° |
| 2026-05-07 10:05 | 26.28542 | 49.03068 | 3384 ft | 93 kts | 66° |
| 2026-05-07 10:05 | 26.28714 | 49.03772 | 3388 ft | 95 kts | 69° |
| 2026-05-07 10:05 | 26.28887 | 49.04487 | 3393 ft | 95 kts | 67° |
| 2026-05-07 10:05 | 26.29057 | 49.05185 | 3389 ft | 94 kts | 65° |
| 2026-05-07 10:06 | 26.29229 | 49.05879 | 3390 ft | 92 kts | 64° |
| 2026-05-07 10:06 | 26.29401 | 49.06567 | 3385 ft | 94 kts | 66° |
| 2026-05-07 10:06 | 26.29574 | 49.07268 | 3382 ft | 94 kts | 66° |
| 2026-05-07 10:06 | 26.29744 | 49.07969 | 3387 ft | 94 kts | 66° |
| 2026-05-07 10:07 | 26.29918 | 49.08675 | 3389 ft | 95 kts | 66° |
| 2026-05-07 10:07 | 26.30091 | 49.09387 | 3384 ft | 97 kts | 68° |
| 2026-05-07 10:07 | 26.30264 | 49.10103 | 3385 ft | 95 kts | 67° |
| 2026-05-07 10:07 | 26.30440 | 49.10812 | 3368 ft | 97 kts | 69° |
| 2026-05-07 10:08 | 26.30613 | 49.11539 | 3395 ft | 96 kts | 67° |
| 2026-05-07 10:08 | 26.30783 | 49.12237 | 3367 ft | 95 kts | 68° |
| 2026-05-07 10:08 | 26.30954 | 49.12953 | 3385 ft | 98 kts | 69° |
| 2026-05-07 10:08 | 26.31125 | 49.13657 | 3382 ft | 92 kts | 66° |
| 2026-05-07 10:09 | 26.31299 | 49.14356 | 3378 ft | 96 kts | 67° |
| 2026-05-07 10:09 | 26.31478 | 49.15075 | 3381 ft | 96 kts | 67° |
| 2026-05-07 10:09 | 26.31595 | 49.15547 | 3377 ft | 95 kts | 66° |
| 2026-05-07 10:09 | 26.31771 | 49.16265 | 3387 ft | 96 kts | 67° |
| 2026-05-07 10:10 | 26.32008 | 49.17220 | 3371 ft | 96 kts | 68° |
| 2026-05-07 10:10 | 26.32123 | 49.17697 | 3378 ft | 96 kts | 68° |
| 2026-05-07 10:10 | 26.32300 | 49.18418 | 3377 ft | 95 kts | 66° |
| 2026-05-07 10:10 | 26.32476 | 49.19135 | 3376 ft | 97 kts | 68° |
| 2026-05-07 10:11 | 26.32654 | 49.19861 | 3382 ft | 95 kts | 64° |
| 2026-05-07 10:11 | 26.32824 | 49.20561 | 3367 ft | 94 kts | 68° |
| 2026-05-07 10:11 | 26.33000 | 49.21289 | 3378 ft | 99 kts | 67° |
| 2026-05-07 10:11 | 26.33182 | 49.22015 | 3377 ft | 94 kts | 64° |
| 2026-05-07 10:12 | 26.33353 | 49.22721 | 3373 ft | 96 kts | 67° |
| 2026-05-07 10:12 | 26.33528 | 49.23457 | 3373 ft | 98 kts | 68° |
| 2026-05-07 10:12 | 26.33703 | 49.24177 | 3379 ft | 95 kts | 66° |
| 2026-05-07 10:12 | 26.33880 | 49.24881 | 3368 ft | 97 kts | 67° |
| 2026-05-07 10:13 | 26.34055 | 49.25609 | 3373 ft | 97 kts | 65° |
| 2026-05-07 10:13 | 26.34230 | 49.26331 | 3367 ft | 97 kts | 68° |
| 2026-05-07 10:13 | 26.34407 | 49.27054 | 3367 ft | 97 kts | 68° |
| 2026-05-07 10:13 | 26.34581 | 49.27770 | 3364 ft | 95 kts | 69° |
| 2026-05-07 10:14 | 26.34755 | 49.28492 | 3368 ft | 98 kts | 69° |
| 2026-05-07 10:14 | 26.34932 | 49.29217 | 3372 ft | 95 kts | 68° |
| 2026-05-07 10:14 | 26.35107 | 49.29924 | 3367 ft | 98 kts | 69° |
| 2026-05-07 10:14 | 26.35285 | 49.30655 | 3370 ft | 96 kts | 68° |
| 2026-05-07 10:15 | 26.35458 | 49.31370 | 3366 ft | 96 kts | 70° |
| 2026-05-07 10:15 | 26.35634 | 49.32101 | 3371 ft | 99 kts | 68° |
| 2026-05-07 10:15 | 26.35815 | 49.32830 | 3365 ft | 96 kts | 67° |
| 2026-05-07 10:15 | 26.35986 | 49.33549 | 3366 ft | 97 kts | 69° |
| 2026-05-07 10:16 | 26.36165 | 49.34274 | 3365 ft | 98 kts | 68° |
| 2026-05-07 10:16 | 26.36341 | 49.35005 | 3369 ft | 97 kts | 68° |
| 2026-05-07 10:16 | 26.36518 | 49.35730 | 3370 ft | 96 kts | 67° |
| 2026-05-07 10:16 | 26.36693 | 49.36451 | 3361 ft | 97 kts | 68° |
| 2026-05-07 10:17 | 26.36871 | 49.37180 | 3361 ft | 97 kts | 68° |
| 2026-05-07 10:17 | 26.37049 | 49.37914 | 3364 ft | 98 kts | 68° |
| 2026-05-07 10:17 | 26.37228 | 49.38654 | 3360 ft | 99 kts | 69° |
| 2026-05-07 10:17 | 26.37406 | 49.39387 | 3357 ft | 97 kts | 68° |
| 2026-05-07 10:18 | 26.37580 | 49.40103 | 3363 ft | 96 kts | 68° |
| 2026-05-07 10:18 | 26.37755 | 49.40828 | 3358 ft | 98 kts | 69° |
| 2026-05-07 10:18 | 26.37932 | 49.41556 | 3361 ft | 98 kts | 69° |
| 2026-05-07 10:18 | 26.38109 | 49.42287 | 3362 ft | 98 kts | 68° |
| 2026-05-07 10:19 | 26.38286 | 49.43016 | 3356 ft | 97 kts | 69° |
| 2026-05-07 10:19 | 26.38462 | 49.43745 | 3358 ft | 98 kts | 69° |
| 2026-05-07 10:19 | 26.38641 | 49.44483 | 3357 ft | 98 kts | 69° |
| 2026-05-07 10:19 | 26.38821 | 49.45223 | 3354 ft | 99 kts | 69° |
| 2026-05-07 10:20 | 26.39000 | 49.45965 | 3347 ft | 100 kts | 69° |
| 2026-05-07 10:20 | 26.39181 | 49.46714 | 3351 ft | 99 kts | 70° |
| 2026-05-07 10:20 | 26.39361 | 49.47456 | 3348 ft | 99 kts | 69° |
| 2026-05-07 10:20 | 26.39539 | 49.48207 | 3426 ft | 102 kts | 73° |
| 2026-05-07 10:21 | 26.39715 | 49.48960 | 3506 ft | 100 kts | 69° |
| 2026-05-07 10:21 | 26.39902 | 49.49719 | 3502 ft | 100 kts | 70° |
| 2026-05-07 10:21 | 26.40086 | 49.50459 | 3496 ft | 101 kts | 70° |
| 2026-05-07 10:21 | 26.40270 | 49.51215 | 3498 ft | 101 kts | 70° |
| 2026-05-07 10:22 | 26.40452 | 49.51968 | 3498 ft | 101 kts | 70° |
| 2026-05-07 10:22 | 26.40634 | 49.52721 | 3493 ft | 101 kts | 71° |
| 2026-05-07 10:22 | 26.40817 | 49.53478 | 3498 ft | 101 kts | 71° |
| 2026-05-07 10:22 | 26.40999 | 49.54234 | 3494 ft | 101 kts | 71° |
| 2026-05-07 10:23 | 26.41182 | 49.54992 | 3499 ft | 101 kts | 70° |
| 2026-05-07 10:23 | 26.41364 | 49.55747 | 3494 ft | 101 kts | 71° |
| 2026-05-07 10:23 | 26.41547 | 49.56504 | 3493 ft | 101 kts | 71° |
| 2026-05-07 10:23 | 26.41729 | 49.57262 | 3489 ft | 102 kts | 71° |
| 2026-05-07 10:24 | 26.41914 | 49.58027 | 3494 ft | 102 kts | 72° |
| 2026-05-07 10:24 | 26.42099 | 49.58792 | 3492 ft | 102 kts | 71° |
| 2026-05-07 10:24 | 26.42282 | 49.59554 | 3492 ft | 102 kts | 71° |
| 2026-05-07 10:24 | 26.42465 | 49.60315 | 3490 ft | 102 kts | 71° |
| 2026-05-07 10:25 | 26.42648 | 49.61075 | 3489 ft | 102 kts | 72° |
| 2026-05-07 10:25 | 26.42832 | 49.61837 | 3494 ft | 102 kts | 71° |
| 2026-05-07 10:25 | 26.43016 | 49.62599 | 3488 ft | 102 kts | 72° |
| 2026-05-07 10:25 | 26.43199 | 49.63363 | 3490 ft | 102 kts | 72° |
| 2026-05-07 10:26 | 26.43383 | 49.64122 | 3485 ft | 101 kts | 72° |
| 2026-05-07 10:26 | 26.43566 | 49.64884 | 3489 ft | 101 kts | 71° |
| 2026-05-07 10:26 | 26.43749 | 49.65648 | 3487 ft | 103 kts | 72° |
| 2026-05-07 10:26 | 26.43934 | 49.66416 | 3487 ft | 102 kts | 72° |
| 2026-05-07 10:27 | 26.44116 | 49.67172 | 3485 ft | 101 kts | 71° |
| 2026-05-07 10:27 | 26.44246 | 49.67953 | 3402 ft | 102 kts | 86° |
| 2026-05-07 10:27 | 26.44011 | 49.68645 | 3377 ft | 96 kts | 124° |
| 2026-05-07 10:27 | 26.43516 | 49.69112 | 3363 ft | 91 kts | 140° |
| 2026-05-07 10:28 | 26.43054 | 49.69543 | 3406 ft | 82 kts | 136° |
| 2026-05-07 10:28 | 26.42682 | 49.69976 | 3434 ft | 73 kts | 129° |
| 2026-05-07 10:28 | 26.42376 | 49.70395 | 3401 ft | 67 kts | 125° |
| 2026-05-07 10:28 | 26.42108 | 49.70812 | 3440 ft | 66 kts | 122° |
| 2026-05-07 10:29 | 26.41907 | 49.71277 | 3347 ft | 69 kts | 107° |
| 2026-05-07 10:29 | 26.41759 | 49.71847 | 3148 ft | 84 kts | 101° |
| 2026-05-07 10:29 | 26.41586 | 49.72498 | 3013 ft | 90 kts | 102° |
| 2026-05-07 10:30 | 26.41173 | 49.73859 | 2798 ft | 93 kts | 98° |
| 2026-05-07 10:30 | 26.41125 | 49.74566 | 2498 ft | 88 kts | 75° |
| 2026-05-07 10:30 | 26.41175 | 49.75198 | 2263 ft | 77 kts | 70° |
| 2026-05-07 10:30 | 26.41253 | 49.75764 | 1882 ft | 73 kts | 61° |
| 2026-05-07 10:31 | 26.41367 | 49.76359 | 1747 ft | 85 kts | 63° |
| 2026-05-07 10:31 | 26.41521 | 49.77033 | 1653 ft | 93 kts | 63° |
| 2026-05-07 10:31 | 26.41574 | 49.77271 | 1641 ft | 95 kts | 63° |
| 2026-05-07 10:31 | 26.41624 | 49.77495 | 1619 ft | 98 kts | 64° |
| 2026-05-07 10:32 | 26.41780 | 49.78133 | 1408 ft | 98 kts | 63° |
| 2026-05-07 10:32 | 26.41983 | 49.78848 | 1244 ft | 95 kts | 64° |
| 2026-05-07 10:32 | 26.42231 | 49.79535 | 1214 ft | 97 kts | 51° |
| 2026-05-07 10:32 | 26.42732 | 49.79944 | 970 ft | 89 kts | 5° |
| 2026-05-07 10:33 | 26.43339 | 49.79863 | 707 ft | 85 kts | 346° |
| 2026-05-07 10:33 | 26.43867 | 49.79675 | 573 ft | 74 kts | 338° |
| 2026-05-07 10:33 | 26.44331 | 49.79509 | 429 ft | 65 kts | 342° |
| 2026-05-07 10:33 | 26.44746 | 49.79409 | 338 ft | 57 kts | 345° |
| 2026-05-07 10:34 | 26.45106 | 49.79292 | 231 ft | 52 kts | 345° |
| 2026-05-07 10:34 | 26.45450 | 49.79193 | 161 ft | 50 kts | 344° |
| 2026-05-07 10:34 | 26.45779 | 49.79089 | 121 ft | 48 kts | 344° |
| 2026-05-07 10:34 | 26.46072 | 49.78998 | 106 ft | 39 kts | 345° |
| 2026-05-07 10:35 | 26.46328 | 49.78920 | 111 ft | 39 kts | 345° |
| 2026-05-07 10:35 | 26.46595 | 49.78834 | 111 ft | 42 kts | 345° |
| 2026-05-07 10:35 | 26.46880 | 49.78746 | 108 ft | 39 kts | 343° |
| 2026-05-07 10:35 | 26.47161 | 49.78735 | 110 ft | 43 kts | 1° |
| 2026-05-07 10:36 | 26.47443 | 49.78827 | 120 ft | 33 kts | 40° |
| 2026-05-07 10:36 | 26.47506 | 49.79076 | 113 ft | 37 kts | 64° |
| 2026-05-07 10:36 | 26.47583 | 49.79360 | 129 ft | 39 kts | 66° |
| 2026-05-07 10:36 | 26.47651 | 49.79639 | 133 ft | 39 kts | 69° |
| 2026-05-07 10:37 | 26.47738 | 49.79963 | 128 ft | 50 kts | 70° |
| 2026-05-07 10:37 | 26.47825 | 49.80329 | 120 ft | 46 kts | 68° |
| 2026-05-07 10:37 | 26.47908 | 49.80659 | 119 ft | 38 kts | 75° |
| 2026-05-07 10:37 | 26.47968 | 49.80905 | 110 ft | 28 kts | 58° |
| 2026-05-07 10:38 | 26.47988 | 49.81045 | 113 ft | 11 kts | 34° |
| 2026-05-07 10:38 | 26.48002 | 49.81076 | 112 ft | 2 kts | 6° |
| 2026-05-07 10:38 | 26.48007 | 49.81103 | 111 ft | 3 kts | 356° |
| 2026-05-07 10:38 | 26.48023 | 49.81122 | 114 ft | 9 kts | 344° |
| 2026-05-07 10:39 | 26.48043 | 49.81138 | 109 ft | 1 kts | 343° |
| 2026-05-07 10:39 | 26.48057 | 49.81137 | 99 ft | 3 kts | 345° |
| 2026-05-07 10:39 | 26.48057 | 49.81139 | 82 ft | 0 kts | 343° |